Emerald Leader — C6WP4 — position and weather

sailwx.info

Track history (hours):
 
Tides and Currents Weather Stations Pressure Air Temp Water Temp Dewpoint Dewpoint Depression Visibility Wind Speed Wind Dir Waves Ship Positions

Emerald Leader

Last reported at 2016-Jul-26 09:31 UTC. Time now 2016-Jul-26 10:19 UTC.
Position N 37°58' E 023°36'.

Length 176 m; draft 8.3 m.

Type: Cargo ship. MMSI: 308688000.

Date/timePositionNaut miles runAvg speedWind from/ knotsBaromVisibWave heightAir tempDewpointWater temp
2016-Jul-26 09:31N 37°58' E 023°36'0 0.0
2016-Jul-26 08:31N 37°58' E 023°36'0 0.0
2016-Jul-26 07:31N 37°58' E 023°36'0 0.0
2016-Jul-26 06:31N 37°58' E 023°36'0 0.0
2016-Jul-26 05:31N 37°58' E 023°36'0 0.0
2016-Jul-26 04:31N 37°58' E 023°36'4 4.4
2016-Jul-26 03:33N 37°54' E 023°38'3 2.6
2016-Jul-26 02:33N 37°51' E 023°39'1313.0
2016-Jul-26 01:33N 37°39' E 023°45'1515.3
2016-Jul-26 00:33N 37°24' E 023°43'1615.7
2016-Jul-25 23:33N 37°08' E 023°41'35913.3
2016-Jul-24 20:26N 37°44' E 016°11'1415.4
2016-Jul-24 19:31N 37°47' E 015°53'1414.7
2016-Jul-24 18:33N 37°52' E 015°36'1616.0
2016-Jul-24 17:34N 38°08' E 015°35'1212.1
2016-Jul-24 16:33N 38°20' E 015°39'1010.1
2016-Jul-24 15:33N 38°27' E 015°30'1817.9
2016-Jul-24 14:33N 38°40' E 015°14'1413.5
2016-Jul-24 13:33N 38°49' E 015°02'1913.0
2016-Jul-24 12:07N 39°02' E 014°44'915.8
2016-Jul-24 11:33N 39°08' E 014°35'4715.7
2016-Jul-24 08:34N 39°39' E 013°50'1615.8
2016-Jul-24 07:34N 39°50' E 013°34'1615.7
2016-Jul-24 06:33N 39°60' E 013°18'1615.6
2016-Jul-24 05:33N 40°10' E 013°03'1515.6
2016-Jul-24 04:33N 40°20' E 012°48'1615.6
2016-Jul-24 03:33N 40°31' E 012°33'1615.7
2016-Jul-24 02:33N 40°41' E 012°17'1916.4
2016-Jul-24 01:23N 40°54' E 011°58'1416.3
2016-Jul-24 00:33N 41°03' E 011°45'11015.7
2016-Jul-23 17:33N 42°16' E 009°55'1714.8
2016-Jul-23 16:24N 42°33' E 009°51'1315.0
2016-Jul-23 15:33N 42°45' E 009°55'1515.1
2016-Jul-23 14:33N 42°60' E 009°59'1515.4
2016-Jul-23 13:33N 43°15' E 010°05'1615.8
2016-Jul-23 12:34N 43°30' E 010°11'7 7.3
2016-Jul-23 11:33N 43°35' E 010°18'0 0.0
2016-Jul-23 10:33N 43°35' E 010°18'0 0.0
2016-Jul-23 09:33N 43°35' E 010°18'0 0.0
2016-Jul-23 08:33N 43°35' E 010°18'0 0.0
2016-Jul-23 07:33N 43°35' E 010°18'0 0.0
2016-Jul-23 06:33N 43°35' E 010°18'0 0.0
2016-Jul-23 04:30N 43°35' E 010°18'0 0.0
2016-Jul-23 03:27N 43°35' E 010°18'0 0.0
2016-Jul-23 02:33N 43°35' E 010°18'0 0.0
2016-Jul-23 01:33N 43°35' E 010°18'0 0.0
2016-Jul-23 00:33N 43°35' E 010°18'0 0.0
2016-Jul-22 23:33N 43°35' E 010°18'0 0.0
2016-Jul-22 22:30N 43°35' E 010°18'0 0.0
2016-Jul-22 21:33N 43°35' E 010°18'0 0.0
2016-Jul-22 20:33N 43°35' E 010°18'0 0.0
2016-Jul-22 19:33N 43°35' E 010°18'0 0.0
2016-Jul-22 18:30N 43°35' E 010°18'0 0.0
2016-Jul-22 17:33N 43°35' E 010°18'0 0.0
2016-Jul-22 16:33N 43°35' E 010°18'0 0.0
2016-Jul-22 15:33N 43°35' E 010°18'0 0.0
2016-Jul-22 14:33N 43°35' E 010°18'0 0.0
2016-Jul-22 13:33N 43°35' E 010°18'0 0.0
2016-Jul-22 12:30N 43°35' E 010°18'4 4.3
2016-Jul-22 11:34N 43°31' E 010°16'6 6.1
2016-Jul-22 10:33N 43°27' E 010°10'1010.1
2016-Jul-22 09:33N 43°19' E 010°01'9 8.7
2016-Jul-22 08:33N 43°17' E 009°49'4 4.5
2016-Jul-22 07:33N 43°15' E 009°44'2814.0
2016-Jul-22 05:33N 43°09' E 009°06'1615.6
2016-Jul-22 04:33N 43°04' E 008°46'1615.6
2016-Jul-22 03:34N 42°58' E 008°26'1615.6
2016-Jul-22 02:34N 42°52' E 008°07'8 2.0
2016-Jul-21 22:24N 42°50' E 007°56'5 1.0
2016-Jul-21 17:30N 42°48' E 007°49'1515.4
2016-Jul-21 16:33N 42°43' E 007°31'1615.1
2016-Jul-21 15:30N 42°36' E 007°11'1615.2
2016-Jul-21 14:25N 42°30' E 006°50'1315.1
2016-Jul-21 13:34N 42°26' E 006°34'3214.4
2016-Jul-21 11:22N 42°15' E 005°54'2 0.2
2016-Jul-21 00:28N 42°14' E 005°52'1 0.6
2016-Jul-20 23:19N 42°13' E 005°53'0 0.6
2016-Jul-20 22:33N 42°13' E 005°54'1 0.3
2016-Jul-20 20:28N 42°13' E 005°55'0 0.2
2016-Jul-20 19:33N 42°13' E 005°54'0 0.5
2016-Jul-20 18:33N 42°14' E 005°54'1 0.7
2016-Jul-20 17:33N 42°14' E 005°53'5 0.9
2016-Jul-20 11:33N 42°12' E 005°46'1 0.8
2016-Jul-20 10:33N 42°12' E 005°45'1 0.7
2016-Jul-20 09:26N 42°11' E 005°44'5213.3
2016-Jul-20 05:31N 41°52' E 004°39'1615.6
2016-Jul-20 04:28N 41°46' E 004°19'1415.5
2016-Jul-20 03:33N 41°42' E 004°01'1515.3
2016-Jul-20 02:33N 41°36' E 003°42'1515.0
2016-Jul-20 01:32N 41°30' E 003°23'1515.4
2016-Jul-20 00:33N 41°24' E 003°04'1515.2
2016-Jul-19 23:33N 41°19' E 002°45'1515.2
2016-Jul-19 22:33N 41°12' E 002°27'1615.5
2016-Jul-19 21:33N 41°07' E 002°08'1615.5
2016-Jul-19 20:32N 41°04' E 001°47'1615.9
2016-Jul-19 19:33N 41°03' E 001°27'1110.8
2016-Jul-19 18:33N 41°05' E 001°13'0 0.4
2016-Jul-19 17:26N 41°06' E 001°12'0 0.0
2016-Jul-19 16:14N 41°06' E 001°12'0 0.0
2016-Jul-19 15:32N 41°06' E 001°12'0 0.0
2016-Jul-19 14:20N 41°06' E 001°12'1 0.1
2016-Jul-19 09:20N 41°05' E 001°13'16 8.1
2016-Jul-19 07:24N 40°59' E 001°32'4 1.6
2016-Jul-19 04:34N 40°58' E 001°38'1 0.5
2016-Jul-19 03:31N 40°57' E 001°38'1 0.7
2016-Jul-19 02:33N 40°56' E 001°38'1 0.9
2016-Jul-19 01:33N 40°56' E 001°39'1 1.0
2016-Jul-19 00:33N 40°55' E 001°40'1 0.7
2016-Jul-18 23:33N 40°54' E 001°40'1 0.7
2016-Jul-18 22:33N 40°54' E 001°41'0 0.5
2016-Jul-18 21:33N 40°53' E 001°40'1010.3
2016-Jul-18 20:32N 40°51' E 001°27'1615.6
2016-Jul-18 19:31N 40°43' E 001°09'1515.4
2016-Jul-18 18:34N 40°29' E 001°04'2215.4
2016-Jul-18 17:08N 40°14' E 000°43'915.4
2016-Jul-18 16:33N 40°07' E 000°34'47 4.2
2016-Jul-18 05:31N 39°38' W 000°13'7 5.3
2016-Jul-18 04:14N 39°33' W 000°08'11114.5
2016-Jul-17 20:33N 37°42' W 000°22'1717.1
2016-Jul-17 19:33N 37°29' W 000°36'1817.3
2016-Jul-17 18:31N 37°17' W 000°53'22514.1
2016-Jul-17 02:33N 35°60' W 005°17'  
Track history (hours):
 
Tides and Currents Weather Stations Pressure Air Temp Water Temp Dewpoint Dewpoint Depression Visibility Wind Speed Wind Dir Waves Ship Positions

Emerald Leader

Last reported at 2016-Jul-26 09:31 UTC. Time now 2016-Jul-26 10:19 UTC.
Position N 37°58' E 023°36'.

Length 176 m; draft 8.3 m.

Type: Cargo ship. MMSI: 308688000.

Date/timePositionNaut miles runAvg speedWind from/ knotsBaromVisibWave heightAir tempDewpointWater temp
2016-Jul-26 09:31N 37°58' E 023°36'0 0.0
2016-Jul-26 08:31N 37°58' E 023°36'0 0.0
2016-Jul-26 07:31N 37°58' E 023°36'0 0.0
2016-Jul-26 06:31N 37°58' E 023°36'0 0.0
2016-Jul-26 05:31N 37°58' E 023°36'0 0.0
2016-Jul-26 04:31N 37°58' E 023°36'4 4.4
2016-Jul-26 03:33N 37°54' E 023°38'3 2.6
2016-Jul-26 02:33N 37°51' E 023°39'1313.0
2016-Jul-26 01:33N 37°39' E 023°45'1515.3
2016-Jul-26 00:33N 37°24' E 023°43'1615.7
2016-Jul-25 23:33N 37°08' E 023°41'35913.3
2016-Jul-24 20:26N 37°44' E 016°11'1415.4
2016-Jul-24 19:31N 37°47' E 015°53'1414.7
2016-Jul-24 18:33N 37°52' E 015°36'1616.0
2016-Jul-24 17:34N 38°08' E 015°35'1212.1
2016-Jul-24 16:33N 38°20' E 015°39'1010.1
2016-Jul-24 15:33N 38°27' E 015°30'1817.9
2016-Jul-24 14:33N 38°40' E 015°14'1413.5
2016-Jul-24 13:33N 38°49' E 015°02'1913.0
2016-Jul-24 12:07N 39°02' E 014°44'915.8
2016-Jul-24 11:33N 39°08' E 014°35'4715.7
2016-Jul-24 08:34N 39°39' E 013°50'1615.8
2016-Jul-24 07:34N 39°50' E 013°34'1615.7
2016-Jul-24 06:33N 39°60' E 013°18'1615.6
2016-Jul-24 05:33N 40°10' E 013°03'1515.6
2016-Jul-24 04:33N 40°20' E 012°48'1615.6
2016-Jul-24 03:33N 40°31' E 012°33'1615.7
2016-Jul-24 02:33N 40°41' E 012°17'1916.4
2016-Jul-24 01:23N 40°54' E 011°58'1416.3
2016-Jul-24 00:33N 41°03' E 011°45'11015.7
2016-Jul-23 17:33N 42°16' E 009°55'1714.8
2016-Jul-23 16:24N 42°33' E 009°51'1315.0
2016-Jul-23 15:33N 42°45' E 009°55'1515.1
2016-Jul-23 14:33N 42°60' E 009°59'1515.4
2016-Jul-23 13:33N 43°15' E 010°05'1615.8
2016-Jul-23 12:34N 43°30' E 010°11'7 7.3
2016-Jul-23 11:33N 43°35' E 010°18'0 0.0
2016-Jul-23 10:33N 43°35' E 010°18'0 0.0
2016-Jul-23 09:33N 43°35' E 010°18'0 0.0
2016-Jul-23 08:33N 43°35' E 010°18'0 0.0
2016-Jul-23 07:33N 43°35' E 010°18'0 0.0
2016-Jul-23 06:33N 43°35' E 010°18'0 0.0
2016-Jul-23 04:30N 43°35' E 010°18'0 0.0
2016-Jul-23 03:27N 43°35' E 010°18'0 0.0
2016-Jul-23 02:33N 43°35' E 010°18'0 0.0
2016-Jul-23 01:33N 43°35' E 010°18'0 0.0
2016-Jul-23 00:33N 43°35' E 010°18'0 0.0
2016-Jul-22 23:33N 43°35' E 010°18'0 0.0
2016-Jul-22 22:30N 43°35' E 010°18'0 0.0
2016-Jul-22 21:33N 43°35' E 010°18'0 0.0
2016-Jul-22 20:33N 43°35' E 010°18'0 0.0
2016-Jul-22 19:33N 43°35' E 010°18'0 0.0
2016-Jul-22 18:30N 43°35' E 010°18'0 0.0
2016-Jul-22 17:33N 43°35' E 010°18'0 0.0
2016-Jul-22 16:33N 43°35' E 010°18'0 0.0
2016-Jul-22 15:33N 43°35' E 010°18'0 0.0
2016-Jul-22 14:33N 43°35' E 010°18'0 0.0
2016-Jul-22 13:33N 43°35' E 010°18'0 0.0
2016-Jul-22 12:30N 43°35' E 010°18'4 4.3
2016-Jul-22 11:34N 43°31' E 010°16'6 6.1
2016-Jul-22 10:33N 43°27' E 010°10'1010.1
2016-Jul-22 09:33N 43°19' E 010°01'9 8.7
2016-Jul-22 08:33N 43°17' E 009°49'4 4.5
2016-Jul-22 07:33N 43°15' E 009°44'2814.0
2016-Jul-22 05:33N 43°09' E 009°06'1615.6
2016-Jul-22 04:33N 43°04' E 008°46'1615.6
2016-Jul-22 03:34N 42°58' E 008°26'1615.6
2016-Jul-22 02:34N 42°52' E 008°07'8 2.0
2016-Jul-21 22:24N 42°50' E 007°56'5 1.0
2016-Jul-21 17:30N 42°48' E 007°49'1515.4
2016-Jul-21 16:33N 42°43' E 007°31'1615.1
2016-Jul-21 15:30N 42°36' E 007°11'1615.2
2016-Jul-21 14:25N 42°30' E 006°50'1315.1
2016-Jul-21 13:34N 42°26' E 006°34'3214.4
2016-Jul-21 11:22N 42°15' E 005°54'2 0.2
2016-Jul-21 00:28N 42°14' E 005°52'1 0.6
2016-Jul-20 23:19N 42°13' E 005°53'0 0.6
2016-Jul-20 22:33N 42°13' E 005°54'1 0.3
2016-Jul-20 20:28N 42°13' E 005°55'0 0.2
2016-Jul-20 19:33N 42°13' E 005°54'0 0.5
2016-Jul-20 18:33N 42°14' E 005°54'1 0.7
2016-Jul-20 17:33N 42°14' E 005°53'5 0.9
2016-Jul-20 11:33N 42°12' E 005°46'1 0.8
2016-Jul-20 10:33N 42°12' E 005°45'1 0.7
2016-Jul-20 09:26N 42°11' E 005°44'5213.3
2016-Jul-20 05:31N 41°52' E 004°39'1615.6
2016-Jul-20 04:28N 41°46' E 004°19'1415.5
2016-Jul-20 03:33N 41°42' E 004°01'1515.3
2016-Jul-20 02:33N 41°36' E 003°42'1515.0
2016-Jul-20 01:32N 41°30' E 003°23'1515.4
2016-Jul-20 00:33N 41°24' E 003°04'1515.2
2016-Jul-19 23:33N 41°19' E 002°45'1515.2
2016-Jul-19 22:33N 41°12' E 002°27'1615.5
2016-Jul-19 21:33N 41°07' E 002°08'1615.5
2016-Jul-19 20:32N 41°04' E 001°47'1615.9
2016-Jul-19 19:33N 41°03' E 001°27'1110.8
2016-Jul-19 18:33N 41°05' E 001°13'0 0.4
2016-Jul-19 17:26N 41°06' E 001°12'0 0.0
2016-Jul-19 16:14N 41°06' E 001°12'0 0.0
2016-Jul-19 15:32N 41°06' E 001°12'0 0.0
2016-Jul-19 14:20N 41°06' E 001°12'1 0.1
2016-Jul-19 09:20N 41°05' E 001°13'16 8.1
2016-Jul-19 07:24N 40°59' E 001°32'4 1.6
2016-Jul-19 04:34N 40°58' E 001°38'1 0.5
2016-Jul-19 03:31N 40°57' E 001°38'1 0.7
2016-Jul-19 02:33N 40°56' E 001°38'1 0.9
2016-Jul-19 01:33N 40°56' E 001°39'1 1.0
2016-Jul-19 00:33N 40°55' E 001°40'1 0.7
2016-Jul-18 23:33N 40°54' E 001°40'1 0.7
2016-Jul-18 22:33N 40°54' E 001°41'0 0.5
2016-Jul-18 21:33N 40°53' E 001°40'1010.3
2016-Jul-18 20:32N 40°51' E 001°27'1615.6
2016-Jul-18 19:31N 40°43' E 001°09'1515.4
2016-Jul-18 18:34N 40°29' E 001°04'2215.4
2016-Jul-18 17:08N 40°14' E 000°43'915.4
2016-Jul-18 16:33N 40°07' E 000°34'47 4.2
2016-Jul-18 05:31N 39°38' W 000°13'7 5.3
2016-Jul-18 04:14N 39°33' W 000°08'11114.5
2016-Jul-17 20:33N 37°42' W 000°22'1717.1
2016-Jul-17 19:33N 37°29' W 000°36'1817.3
2016-Jul-17 18:31N 37°17' W 000°53'22514.1
2016-Jul-17 02:33N 35°60' W 005°17'  

Dump ship's entire track history